sensor_id;sensor_type;location;lat;lon;timestamp;P1;durP1;ratioP1;P2;durP2;ratioP2
1949;SDS011;975;48.760;9.152;2022-11-15T00:02:01;6.53;;;3.08;;
1949;SDS011;975;48.760;9.152;2022-11-15T00:04:50;4.70;;;3.10;;
1949;SDS011;975;48.760;9.152;2022-11-15T00:07:39;5.25;;;2.70;;
1949;SDS011;975;48.760;9.152;2022-11-15T00:10:27;4.25;;;2.53;;
1949;SDS011;975;48.760;9.152;2022-11-15T00:13:15;6.47;;;2.72;;
1949;SDS011;975;48.760;9.152;2022-11-15T00:16:03;6.30;;;2.75;;
1949;SDS011;975;48.760;9.152;2022-11-15T00:18:51;5.25;;;2.53;;
1949;SDS011;975;48.760;9.152;2022-11-15T00:21:39;5.80;;;2.70;;
1949;SDS011;975;48.760;9.152;2022-11-15T00:24:28;5.03;;;2.60;;
1949;SDS011;975;48.760;9.152;2022-11-15T00:27:16;7.57;;;3.22;;
1949;SDS011;975;48.760;9.152;2022-11-15T00:30:04;5.78;;;2.72;;
1949;SDS011;975;48.760;9.152;2022-11-15T00:32:52;5.60;;;2.80;;
1949;SDS011;975;48.760;9.152;2022-11-15T00:35:40;5.78;;;2.22;;
1949;SDS011;975;48.760;9.152;2022-11-15T00:38:30;4.97;;;2.50;;
1949;SDS011;975;48.760;9.152;2022-11-15T00:41:20;5.25;;;2.88;;
1949;SDS011;975;48.760;9.152;2022-11-15T00:44:08;6.93;;;2.20;;
1949;SDS011;975;48.760;9.152;2022-11-15T00:46:56;5.60;;;2.50;;
1949;SDS011;975;48.760;9.152;2022-11-15T00:49:43;5.20;;;2.50;;
1949;SDS011;975;48.760;9.152;2022-11-15T00:52:31;4.47;;;2.60;;
1949;SDS011;975;48.760;9.152;2022-11-15T00:55:19;9.13;;;2.63;;
1949;SDS011;975;48.760;9.152;2022-11-15T00:58:09;4.85;;;2.38;;
1949;SDS011;975;48.760;9.152;2022-11-15T01:00:56;7.78;;;2.78;;
1949;SDS011;975;48.760;9.152;2022-11-15T01:03:52;4.97;;;2.65;;
1949;SDS011;975;48.760;9.152;2022-11-15T01:06:40;6.60;;;2.80;;
1949;SDS011;975;48.760;9.152;2022-11-15T01:09:28;4.95;;;2.47;;
1949;SDS011;975;48.760;9.152;2022-11-15T01:12:16;6.88;;;2.25;;
1949;SDS011;975;48.760;9.152;2022-11-15T01:15:05;6.93;;;2.65;;
1949;SDS011;975;48.760;9.152;2022-11-15T01:17:53;6.22;;;2.42;;
1949;SDS011;975;48.760;9.152;2022-11-15T01:20:42;5.28;;;2.42;;
1949;SDS011;975;48.760;9.152;2022-11-15T01:23:29;5.13;;;2.75;;
1949;SDS011;975;48.760;9.152;2022-11-15T01:26:17;5.45;;;2.33;;
1949;SDS011;975;48.760;9.152;2022-11-15T01:29:05;5.10;;;2.65;;
1949;SDS011;975;48.760;9.152;2022-11-15T01:31:54;3.55;;;2.35;;
1949;SDS011;975;48.760;9.152;2022-11-15T01:34:42;4.78;;;2.20;;
1949;SDS011;975;48.760;9.152;2022-11-15T01:37:30;5.50;;;2.28;;
1949;SDS011;975;48.760;9.152;2022-11-15T01:40:18;6.32;;;2.83;;
1949;SDS011;975;48.760;9.152;2022-11-15T01:43:19;4.55;;;2.70;;
1949;SDS011;975;48.760;9.152;2022-11-15T01:46:12;7.22;;;2.40;;
1949;SDS011;975;48.760;9.152;2022-11-15T01:49:04;4.60;;;2.30;;
1949;SDS011;975;48.760;9.152;2022-11-15T01:51:53;4.18;;;2.50;;
1949;SDS011;975;48.760;9.152;2022-11-15T01:54:42;5.32;;;2.35;;
1949;SDS011;975;48.760;9.152;2022-11-15T01:57:33;6.35;;;2.58;;
1949;SDS011;975;48.760;9.152;2022-11-15T02:00:21;6.63;;;2.58;;
1949;SDS011;975;48.760;9.152;2022-11-15T02:03:09;3.72;;;2.08;;
1949;SDS011;975;48.760;9.152;2022-11-15T02:05:58;5.40;;;2.65;;
1949;SDS011;975;48.760;9.152;2022-11-15T02:08:46;4.93;;;2.28;;
1949;SDS011;975;48.760;9.152;2022-11-15T02:11:34;5.00;;;2.33;;
1949;SDS011;975;48.760;9.152;2022-11-15T02:14:22;8.25;;;2.53;;
1949;SDS011;975;48.760;9.152;2022-11-15T02:17:14;4.30;;;2.15;;
1949;SDS011;975;48.760;9.152;2022-11-15T02:20:14;3.60;;;2.15;;
1949;SDS011;975;48.760;9.152;2022-11-15T02:26:24;3.78;;;2.13;;
1949;SDS011;975;48.760;9.152;2022-11-15T02:29:19;4.15;;;2.33;;
1949;SDS011;975;48.760;9.152;2022-11-15T02:32:15;3.25;;;2.17;;
1949;SDS011;975;48.760;9.152;2022-11-15T02:35:11;6.05;;;2.15;;
1949;SDS011;975;48.760;9.152;2022-11-15T02:38:02;10.80;;;3.33;;
1949;SDS011;975;48.760;9.152;2022-11-15T02:40:52;3.33;;;2.15;;
1949;SDS011;975;48.760;9.152;2022-11-15T02:43:42;4.05;;;1.88;;
1949;SDS011;975;48.760;9.152;2022-11-15T02:46:45;6.45;;;2.40;;
1949;SDS011;975;48.760;9.152;2022-11-15T02:49:54;3.60;;;2.50;;
1949;SDS011;975;48.760;9.152;2022-11-15T02:55:30;4.15;;;2.30;;
1949;SDS011;975;48.760;9.152;2022-11-15T02:58:23;4.15;;;2.38;;
1949;SDS011;975;48.760;9.152;2022-11-15T03:01:18;7.18;;;2.33;;
1949;SDS011;975;48.760;9.152;2022-11-15T03:04:11;5.20;;;2.17;;
1949;SDS011;975;48.760;9.152;2022-11-15T03:07:06;7.30;;;2.20;;
1949;SDS011;975;48.760;9.152;2022-11-15T03:09:56;3.88;;;1.77;;
1949;SDS011;975;48.760;9.152;2022-11-15T03:12:46;5.13;;;2.22;;
1949;SDS011;975;48.760;9.152;2022-11-15T03:15:37;3.67;;;2.10;;
1949;SDS011;975;48.760;9.152;2022-11-15T03:18:26;5.70;;;1.88;;
1949;SDS011;975;48.760;9.152;2022-11-15T03:21:16;7.13;;;2.33;;
1949;SDS011;975;48.760;9.152;2022-11-15T03:24:08;3.55;;;2.13;;
1949;SDS011;975;48.760;9.152;2022-11-15T03:26:56;4.78;;;1.80;;
1949;SDS011;975;48.760;9.152;2022-11-15T03:29:46;3.92;;;2.10;;
1949;SDS011;975;48.760;9.152;2022-11-15T03:32:37;5.03;;;2.08;;
1949;SDS011;975;48.760;9.152;2022-11-15T03:35:27;4.40;;;2.17;;
1949;SDS011;975;48.760;9.152;2022-11-15T03:38:17;4.80;;;2.00;;
1949;SDS011;975;48.760;9.152;2022-11-15T03:41:09;2.45;;;1.65;;
1949;SDS011;975;48.760;9.152;2022-11-15T03:44:03;4.53;;;2.00;;
1949;SDS011;975;48.760;9.152;2022-11-15T03:46:54;5.30;;;1.90;;
1949;SDS011;975;48.760;9.152;2022-11-15T03:49:45;3.53;;;1.92;;
1949;SDS011;975;48.760;9.152;2022-11-15T03:52:34;5.40;;;2.03;;
1949;SDS011;975;48.760;9.152;2022-11-15T03:55:22;5.68;;;1.98;;
1949;SDS011;975;48.760;9.152;2022-11-15T03:58:12;3.30;;;1.80;;
1949;SDS011;975;48.760;9.152;2022-11-15T04:00:59;6.80;;;2.13;;
1949;SDS011;975;48.760;9.152;2022-11-15T04:03:47;4.97;;;1.80;;
1949;SDS011;975;48.760;9.152;2022-11-15T04:06:35;5.53;;;1.77;;
1949;SDS011;975;48.760;9.152;2022-11-15T04:09:23;4.93;;;2.00;;
1949;SDS011;975;48.760;9.152;2022-11-15T04:12:11;5.10;;;1.95;;
1949;SDS011;975;48.760;9.152;2022-11-15T04:15:18;3.65;;;2.20;;
1949;SDS011;975;48.760;9.152;2022-11-15T04:18:06;6.75;;;2.40;;
1949;SDS011;975;48.760;9.152;2022-11-15T04:20:54;4.60;;;2.15;;
1949;SDS011;975;48.760;9.152;2022-11-15T04:24:14;3.80;;;1.90;;
1949;SDS011;975;48.760;9.152;2022-11-15T04:27:02;6.35;;;2.40;;
1949;SDS011;975;48.760;9.152;2022-11-15T04:29:50;3.97;;;2.10;;
1949;SDS011;975;48.760;9.152;2022-11-15T04:32:39;3.15;;;1.70;;
1949;SDS011;975;48.760;9.152;2022-11-15T04:35:27;2.63;;;1.75;;
1949;SDS011;975;48.760;9.152;2022-11-15T04:38:15;2.72;;;1.63;;
1949;SDS011;975;48.760;9.152;2022-11-15T04:41:02;6.53;;;2.15;;
1949;SDS011;975;48.760;9.152;2022-11-15T04:43:50;5.28;;;2.00;;
1949;SDS011;975;48.760;9.152;2022-11-15T04:46:38;4.93;;;2.55;;
1949;SDS011;975;48.760;9.152;2022-11-15T04:49:28;4.35;;;2.05;;
1949;SDS011;975;48.760;9.152;2022-11-15T04:52:15;4.13;;;1.90;;
1949;SDS011;975;48.760;9.152;2022-11-15T04:55:04;4.70;;;2.30;;
1949;SDS011;975;48.760;9.152;2022-11-15T04:57:58;5.18;;;2.08;;
1949;SDS011;975;48.760;9.152;2022-11-15T05:00:46;4.00;;;2.13;;
1949;SDS011;975;48.760;9.152;2022-11-15T05:03:34;3.08;;;1.58;;
1949;SDS011;975;48.760;9.152;2022-11-15T05:06:41;2.28;;;1.60;;
1949;SDS011;975;48.760;9.152;2022-11-15T05:09:29;4.78;;;1.98;;
1949;SDS011;975;48.760;9.152;2022-11-15T05:12:17;5.00;;;1.92;;
1949;SDS011;975;48.760;9.152;2022-11-15T05:15:05;8.93;;;2.10;;
1949;SDS011;975;48.760;9.152;2022-11-15T05:17:59;5.22;;;1.98;;
1949;SDS011;975;48.760;9.152;2022-11-15T05:20:47;4.15;;;2.00;;
1949;SDS011;975;48.760;9.152;2022-11-15T05:23:36;3.72;;;1.65;;
1949;SDS011;975;48.760;9.152;2022-11-15T05:26:24;3.67;;;1.88;;
1949;SDS011;975;48.760;9.152;2022-11-15T05:29:12;3.20;;;2.20;;
1949;SDS011;975;48.760;9.152;2022-11-15T05:32:00;6.35;;;2.10;;
1949;SDS011;975;48.760;9.152;2022-11-15T05:34:48;5.38;;;2.15;;
1949;SDS011;975;48.760;9.152;2022-11-15T05:37:36;4.43;;;2.03;;
1949;SDS011;975;48.760;9.152;2022-11-15T05:40:25;4.40;;;2.05;;
1949;SDS011;975;48.760;9.152;2022-11-15T05:43:13;5.68;;;2.10;;
1949;SDS011;975;48.760;9.152;2022-11-15T05:46:01;5.13;;;2.10;;
1949;SDS011;975;48.760;9.152;2022-11-15T05:48:54;4.88;;;2.20;;
1949;SDS011;975;48.760;9.152;2022-11-15T05:51:58;4.45;;;2.30;;
1949;SDS011;975;48.760;9.152;2022-11-15T05:54:46;3.47;;;1.95;;
1949;SDS011;975;48.760;9.152;2022-11-15T05:57:36;5.70;;;2.10;;
1949;SDS011;975;48.760;9.152;2022-11-15T06:00:24;3.65;;;1.88;;
1949;SDS011;975;48.760;9.152;2022-11-15T06:03:11;3.30;;;1.65;;
1949;SDS011;975;48.760;9.152;2022-11-15T06:06:00;6.57;;;2.08;;
1949;SDS011;975;48.760;9.152;2022-11-15T06:08:48;4.75;;;1.67;;
1949;SDS011;975;48.760;9.152;2022-11-15T06:11:35;3.58;;;1.83;;
1949;SDS011;975;48.760;9.152;2022-11-15T06:14:25;3.70;;;1.85;;
1949;SDS011;975;48.760;9.152;2022-11-15T06:17:13;4.50;;;2.35;;
1949;SDS011;975;48.760;9.152;2022-11-15T06:20:00;6.53;;;2.47;;
1949;SDS011;975;48.760;9.152;2022-11-15T06:22:49;5.20;;;2.10;;
1949;SDS011;975;48.760;9.152;2022-11-15T06:25:37;4.13;;;2.42;;
1949;SDS011;975;48.760;9.152;2022-11-15T06:28:25;5.25;;;2.33;;
1949;SDS011;975;48.760;9.152;2022-11-15T06:31:16;7.35;;;2.63;;
1949;SDS011;975;48.760;9.152;2022-11-15T06:34:04;5.75;;;2.53;;
1949;SDS011;975;48.760;9.152;2022-11-15T06:36:52;4.55;;;2.35;;
1949;SDS011;975;48.760;9.152;2022-11-15T06:39:40;7.55;;;2.45;;
1949;SDS011;975;48.760;9.152;2022-11-15T06:42:28;7.28;;;2.42;;
1949;SDS011;975;48.760;9.152;2022-11-15T06:45:18;8.18;;;2.40;;
1949;SDS011;975;48.760;9.152;2022-11-15T06:48:07;6.88;;;2.38;;
1949;SDS011;975;48.760;9.152;2022-11-15T06:50:56;5.40;;;2.22;;
1949;SDS011;975;48.760;9.152;2022-11-15T06:53:44;5.28;;;2.42;;
1949;SDS011;975;48.760;9.152;2022-11-15T06:56:33;8.15;;;2.63;;
1949;SDS011;975;48.760;9.152;2022-11-15T06:59:21;6.20;;;2.47;;
1949;SDS011;975;48.760;9.152;2022-11-15T07:02:11;7.18;;;3.10;;
1949;SDS011;975;48.760;9.152;2022-11-15T07:05:00;7.78;;;3.08;;
1949;SDS011;975;48.760;9.152;2022-11-15T07:07:50;7.35;;;3.25;;
1949;SDS011;975;48.760;9.152;2022-11-15T07:10:38;11.48;;;3.88;;
1949;SDS011;975;48.760;9.152;2022-11-15T07:13:27;6.50;;;3.55;;
1949;SDS011;975;48.760;9.152;2022-11-15T07:16:16;5.85;;;2.78;;
1949;SDS011;975;48.760;9.152;2022-11-15T07:19:03;4.82;;;2.80;;
1949;SDS011;975;48.760;9.152;2022-11-15T07:21:53;5.38;;;3.30;;
1949;SDS011;975;48.760;9.152;2022-11-15T07:24:41;6.07;;;3.03;;
1949;SDS011;975;48.760;9.152;2022-11-15T07:27:29;5.53;;;3.17;;
1949;SDS011;975;48.760;9.152;2022-11-15T07:30:16;5.55;;;2.50;;
1949;SDS011;975;48.760;9.152;2022-11-15T07:33:05;8.23;;;2.80;;
1949;SDS011;975;48.760;9.152;2022-11-15T07:35:53;5.00;;;2.80;;
1949;SDS011;975;48.760;9.152;2022-11-15T07:38:42;5.25;;;2.55;;
1949;SDS011;975;48.760;9.152;2022-11-15T07:41:30;6.20;;;2.65;;
1949;SDS011;975;48.760;9.152;2022-11-15T07:44:18;5.78;;;2.58;;
1949;SDS011;975;48.760;9.152;2022-11-15T07:47:06;4.65;;;2.58;;
1949;SDS011;975;48.760;9.152;2022-11-15T07:49:54;11.23;;;3.10;;
1949;SDS011;975;48.760;9.152;2022-11-15T07:52:42;6.32;;;2.10;;
1949;SDS011;975;48.760;9.152;2022-11-15T07:55:31;4.68;;;2.92;;
1949;SDS011;975;48.760;9.152;2022-11-15T07:58:19;9.50;;;2.70;;
1949;SDS011;975;48.760;9.152;2022-11-15T08:01:08;5.43;;;2.60;;
1949;SDS011;975;48.760;9.152;2022-11-15T08:03:56;7.88;;;2.72;;
1949;SDS011;975;48.760;9.152;2022-11-15T08:06:44;6.18;;;2.38;;
1949;SDS011;975;48.760;9.152;2022-11-15T08:09:32;5.85;;;2.35;;
1949;SDS011;975;48.760;9.152;2022-11-15T08:12:22;4.95;;;2.45;;
1949;SDS011;975;48.760;9.152;2022-11-15T08:15:10;6.10;;;2.88;;
1949;SDS011;975;48.760;9.152;2022-11-15T08:17:58;9.15;;;2.38;;
1949;SDS011;975;48.760;9.152;2022-11-15T08:20:46;4.07;;;2.30;;
1949;SDS011;975;48.760;9.152;2022-11-15T08:23:34;5.50;;;2.97;;
1949;SDS011;975;48.760;9.152;2022-11-15T08:26:22;7.57;;;2.13;;
1949;SDS011;975;48.760;9.152;2022-11-15T08:29:13;5.45;;;2.33;;
1949;SDS011;975;48.760;9.152;2022-11-15T08:32:01;9.45;;;2.55;;
1949;SDS011;975;48.760;9.152;2022-11-15T08:34:50;5.75;;;2.40;;
1949;SDS011;975;48.760;9.152;2022-11-15T08:37:38;4.68;;;2.40;;
1949;SDS011;975;48.760;9.152;2022-11-15T08:40:28;6.53;;;2.75;;
1949;SDS011;975;48.760;9.152;2022-11-15T08:43:21;6.03;;;2.60;;
1949;SDS011;975;48.760;9.152;2022-11-15T08:46:12;8.40;;;2.67;;
1949;SDS011;975;48.760;9.152;2022-11-15T08:51:51;3.00;;;2.00;;
1949;SDS011;975;48.760;9.152;2022-11-15T08:54:39;5.32;;;2.53;;
1949;SDS011;975;48.760;9.152;2022-11-15T08:57:28;6.78;;;2.40;;
1949;SDS011;975;48.760;9.152;2022-11-15T09:00:16;6.03;;;2.50;;
1949;SDS011;975;48.760;9.152;2022-11-15T09:03:07;3.03;;;1.83;;
1949;SDS011;975;48.760;9.152;2022-11-15T09:05:56;6.93;;;2.47;;
1949;SDS011;975;48.760;9.152;2022-11-15T09:08:43;4.63;;;2.45;;
1949;SDS011;975;48.760;9.152;2022-11-15T09:11:31;6.72;;;2.20;;
1949;SDS011;975;48.760;9.152;2022-11-15T09:14:19;4.50;;;2.00;;
1949;SDS011;975;48.760;9.152;2022-11-15T09:17:07;4.03;;;2.15;;
1949;SDS011;975;48.760;9.152;2022-11-15T09:19:57;8.20;;;2.03;;
1949;SDS011;975;48.760;9.152;2022-11-15T09:22:45;4.88;;;2.40;;
1949;SDS011;975;48.760;9.152;2022-11-15T09:25:33;6.03;;;1.92;;
1949;SDS011;975;48.760;9.152;2022-11-15T09:28:21;3.38;;;1.98;;
1949;SDS011;975;48.760;9.152;2022-11-15T09:31:09;4.20;;;1.85;;
1949;SDS011;975;48.760;9.152;2022-11-15T09:33:56;4.30;;;2.10;;
1949;SDS011;975;48.760;9.152;2022-11-15T09:36:46;4.45;;;2.08;;
1949;SDS011;975;48.760;9.152;2022-11-15T09:39:34;3.75;;;1.70;;
1949;SDS011;975;48.760;9.152;2022-11-15T09:42:25;4.90;;;1.65;;
1949;SDS011;975;48.760;9.152;2022-11-15T09:45:16;4.68;;;1.95;;
1949;SDS011;975;48.760;9.152;2022-11-15T09:48:09;4.15;;;1.58;;
1949;SDS011;975;48.760;9.152;2022-11-15T09:51:00;6.15;;;2.05;;
1949;SDS011;975;48.760;9.152;2022-11-15T09:53:52;4.55;;;1.75;;
1949;SDS011;975;48.760;9.152;2022-11-15T09:56:46;3.63;;;2.03;;
1949;SDS011;975;48.760;9.152;2022-11-15T09:59:41;3.95;;;1.65;;
1949;SDS011;975;48.760;9.152;2022-11-15T10:02:36;4.00;;;1.85;;
1949;SDS011;975;48.760;9.152;2022-11-15T10:05:29;6.22;;;1.88;;
1949;SDS011;975;48.760;9.152;2022-11-15T10:08:24;3.10;;;1.70;;
1949;SDS011;975;48.760;9.152;2022-11-15T10:11:16;3.78;;;1.73;;
1949;SDS011;975;48.760;9.152;2022-11-15T10:14:08;7.38;;;1.85;;
1949;SDS011;975;48.760;9.152;2022-11-15T10:20:07;3.97;;;1.65;;
1949;SDS011;975;48.760;9.152;2022-11-15T10:22:58;4.68;;;1.70;;
1949;SDS011;975;48.760;9.152;2022-11-15T10:25:46;3.28;;;1.92;;
1949;SDS011;975;48.760;9.152;2022-11-15T10:28:36;3.03;;;1.80;;
1949;SDS011;975;48.760;9.152;2022-11-15T10:31:24;2.55;;;1.60;;
1949;SDS011;975;48.760;9.152;2022-11-15T10:34:13;3.95;;;1.70;;
1949;SDS011;975;48.760;9.152;2022-11-15T10:37:01;2.03;;;1.40;;
1949;SDS011;975;48.760;9.152;2022-11-15T10:39:56;5.25;;;1.60;;
1949;SDS011;975;48.760;9.152;2022-11-15T10:43:03;5.07;;;1.80;;
1949;SDS011;975;48.760;9.152;2022-11-15T10:45:52;2.50;;;1.23;;
1949;SDS011;975;48.760;9.152;2022-11-15T10:48:40;3.28;;;1.65;;
1949;SDS011;975;48.760;9.152;2022-11-15T10:51:40;2.60;;;1.45;;
1949;SDS011;975;48.760;9.152;2022-11-15T10:54:30;3.17;;;1.38;;
1949;SDS011;975;48.760;9.152;2022-11-15T10:57:20;3.25;;;1.30;;
1949;SDS011;975;48.760;9.152;2022-11-15T11:00:25;3.90;;;1.40;;
1949;SDS011;975;48.760;9.152;2022-11-15T11:03:25;2.13;;;1.08;;
1949;SDS011;975;48.760;9.152;2022-11-15T11:06:16;11.05;;;2.25;;
1949;SDS011;975;48.760;9.152;2022-11-15T11:09:05;1.75;;;0.95;;
1949;SDS011;975;48.760;9.152;2022-11-15T11:11:53;1.33;;;1.05;;
1949;SDS011;975;48.760;9.152;2022-11-15T11:14:40;1.55;;;1.10;;
1949;SDS011;975;48.760;9.152;2022-11-15T11:17:32;4.82;;;1.50;;
1949;SDS011;975;48.760;9.152;2022-11-15T11:20:25;2.10;;;1.00;;
1949;SDS011;975;48.760;9.152;2022-11-15T11:23:19;3.92;;;1.27;;
1949;SDS011;975;48.760;9.152;2022-11-15T11:26:13;3.40;;;1.55;;
1949;SDS011;975;48.760;9.152;2022-11-15T11:29:07;3.55;;;1.35;;
1949;SDS011;975;48.760;9.152;2022-11-15T11:32:00;3.33;;;1.38;;
1949;SDS011;975;48.760;9.152;2022-11-15T11:34:50;2.80;;;1.30;;
1949;SDS011;975;48.760;9.152;2022-11-15T11:37:47;4.95;;;1.20;;
1949;SDS011;975;48.760;9.152;2022-11-15T11:40:37;2.70;;;1.30;;
1949;SDS011;975;48.760;9.152;2022-11-15T11:43:30;4.13;;;1.33;;
1949;SDS011;975;48.760;9.152;2022-11-15T11:49:29;3.60;;;1.38;;
1949;SDS011;975;48.760;9.152;2022-11-15T11:52:21;5.05;;;1.38;;
1949;SDS011;975;48.760;9.152;2022-11-15T11:55:14;2.67;;;0.93;;
1949;SDS011;975;48.760;9.152;2022-11-15T11:58:04;3.72;;;1.50;;
1949;SDS011;975;48.760;9.152;2022-11-15T12:00:54;2.90;;;1.20;;
1949;SDS011;975;48.760;9.152;2022-11-15T12:03:43;2.85;;;1.40;;
1949;SDS011;975;48.760;9.152;2022-11-15T12:06:32;2.13;;;1.13;;
1949;SDS011;975;48.760;9.152;2022-11-15T12:09:22;1.80;;;1.13;;
1949;SDS011;975;48.760;9.152;2022-11-15T12:15:01;2.03;;;1.10;;
1949;SDS011;975;48.760;9.152;2022-11-15T12:17:49;5.70;;;1.40;;
1949;SDS011;975;48.760;9.152;2022-11-15T12:20:39;1.58;;;0.90;;
1949;SDS011;975;48.760;9.152;2022-11-15T12:23:28;2.40;;;1.40;;
1949;SDS011;975;48.760;9.152;2022-11-15T12:26:17;3.20;;;1.40;;
1949;SDS011;975;48.760;9.152;2022-11-15T12:29:09;5.07;;;1.10;;
1949;SDS011;975;48.760;9.152;2022-11-15T12:32:00;1.95;;;1.30;;
1949;SDS011;975;48.760;9.152;2022-11-15T12:34:50;1.85;;;1.20;;
1949;SDS011;975;48.760;9.152;2022-11-15T12:37:49;2.75;;;1.33;;
1949;SDS011;975;48.760;9.152;2022-11-15T12:40:38;3.38;;;1.55;;
1949;SDS011;975;48.760;9.152;2022-11-15T12:49:45;4.25;;;1.30;;
1949;SDS011;975;48.760;9.152;2022-11-15T12:52:33;2.72;;;1.33;;
1949;SDS011;975;48.760;9.152;2022-11-15T12:58:27;3.92;;;1.75;;
1949;SDS011;975;48.760;9.152;2022-11-15T13:04:23;4.32;;;1.55;;
1949;SDS011;975;48.760;9.152;2022-11-15T13:07:54;3.03;;;1.40;;
1949;SDS011;975;48.760;9.152;2022-11-15T13:10:29;2.58;;;1.48;;
1949;SDS011;975;48.760;9.152;2022-11-15T13:13:40;3.80;;;1.60;;
1949;SDS011;975;48.760;9.152;2022-11-15T13:16:25;4.10;;;1.45;;
1949;SDS011;975;48.760;9.152;2022-11-15T13:19:14;4.03;;;2.22;;
1949;SDS011;975;48.760;9.152;2022-11-15T13:22:04;4.35;;;1.98;;
1949;SDS011;975;48.760;9.152;2022-11-15T13:25:18;3.67;;;1.80;;
1949;SDS011;975;48.760;9.152;2022-11-15T13:28:11;5.70;;;1.92;;
1949;SDS011;975;48.760;9.152;2022-11-15T13:31:15;4.47;;;2.10;;
1949;SDS011;975;48.760;9.152;2022-11-15T13:34:14;4.70;;;1.80;;
1949;SDS011;975;48.760;9.152;2022-11-15T13:37:03;5.68;;;1.67;;
1949;SDS011;975;48.760;9.152;2022-11-15T13:39:51;5.05;;;1.67;;
1949;SDS011;975;48.760;9.152;2022-11-15T13:42:40;8.90;;;3.30;;
1949;SDS011;975;48.760;9.152;2022-11-15T13:45:28;7.82;;;2.85;;
1949;SDS011;975;48.760;9.152;2022-11-15T13:48:15;4.82;;;2.50;;
1949;SDS011;975;48.760;9.152;2022-11-15T13:51:04;4.68;;;2.13;;
1949;SDS011;975;48.760;9.152;2022-11-15T13:53:54;6.90;;;2.80;;
1949;SDS011;975;48.760;9.152;2022-11-15T13:56:44;7.10;;;2.65;;
1949;SDS011;975;48.760;9.152;2022-11-15T13:59:34;4.93;;;2.30;;
1949;SDS011;975;48.760;9.152;2022-11-15T14:05:14;4.43;;;2.42;;
1949;SDS011;975;48.760;9.152;2022-11-15T14:08:03;4.65;;;2.28;;
1949;SDS011;975;48.760;9.152;2022-11-15T14:11:06;4.40;;;2.60;;
1949;SDS011;975;48.760;9.152;2022-11-15T14:14:00;4.72;;;2.70;;
1949;SDS011;975;48.760;9.152;2022-11-15T14:16:51;8.85;;;3.05;;
1949;SDS011;975;48.760;9.152;2022-11-15T14:19:39;5.38;;;2.70;;
1949;SDS011;975;48.760;9.152;2022-11-15T14:22:28;7.15;;;3.13;;
1949;SDS011;975;48.760;9.152;2022-11-15T14:25:17;6.68;;;3.75;;
1949;SDS011;975;48.760;9.152;2022-11-15T14:28:13;7.68;;;2.40;;
1949;SDS011;975;48.760;9.152;2022-11-15T14:31:02;5.22;;;2.70;;
1949;SDS011;975;48.760;9.152;2022-11-15T14:33:54;6.38;;;3.28;;
1949;SDS011;975;48.760;9.152;2022-11-15T14:36:41;8.98;;;3.08;;
1949;SDS011;975;48.760;9.152;2022-11-15T14:39:29;8.63;;;3.30;;
1949;SDS011;975;48.760;9.152;2022-11-15T14:42:17;5.35;;;2.50;;
1949;SDS011;975;48.760;9.152;2022-11-15T14:45:07;8.05;;;2.80;;
1949;SDS011;975;48.760;9.152;2022-11-15T14:47:56;7.63;;;3.15;;
1949;SDS011;975;48.760;9.152;2022-11-15T14:50:45;5.78;;;2.63;;
1949;SDS011;975;48.760;9.152;2022-11-15T14:53:33;6.80;;;2.83;;
1949;SDS011;975;48.760;9.152;2022-11-15T14:56:21;5.10;;;2.72;;
1949;SDS011;975;48.760;9.152;2022-11-15T14:59:09;7.75;;;3.10;;
1949;SDS011;975;48.760;9.152;2022-11-15T15:01:57;8.10;;;4.30;;
1949;SDS011;975;48.760;9.152;2022-11-15T15:04:46;5.38;;;2.70;;
1949;SDS011;975;48.760;9.152;2022-11-15T15:07:35;7.68;;;4.47;;
1949;SDS011;975;48.760;9.152;2022-11-15T15:10:23;9.23;;;5.53;;
1949;SDS011;975;48.760;9.152;2022-11-15T15:13:15;6.65;;;3.70;;
1949;SDS011;975;48.760;9.152;2022-11-15T15:16:03;6.68;;;4.40;;
1949;SDS011;975;48.760;9.152;2022-11-15T15:18:51;9.82;;;4.88;;
1949;SDS011;975;48.760;9.152;2022-11-15T15:21:39;8.63;;;3.65;;
1949;SDS011;975;48.760;9.152;2022-11-15T15:24:29;5.32;;;3.47;;
1949;SDS011;975;48.760;9.152;2022-11-15T15:27:19;6.75;;;3.05;;
1949;SDS011;975;48.760;9.152;2022-11-15T15:30:08;7.63;;;3.08;;
1949;SDS011;975;48.760;9.152;2022-11-15T15:32:56;8.88;;;3.53;;
1949;SDS011;975;48.760;9.152;2022-11-15T15:35:44;6.15;;;3.05;;
1949;SDS011;975;48.760;9.152;2022-11-15T15:38:32;7.13;;;3.08;;
1949;SDS011;975;48.760;9.152;2022-11-15T15:41:21;7.00;;;3.30;;
1949;SDS011;975;48.760;9.152;2022-11-15T15:44:09;7.40;;;3.65;;
1949;SDS011;975;48.760;9.152;2022-11-15T15:46:57;7.85;;;3.58;;
1949;SDS011;975;48.760;9.152;2022-11-15T15:49:45;7.00;;;2.97;;
1949;SDS011;975;48.760;9.152;2022-11-15T15:52:36;5.45;;;2.83;;
1949;SDS011;975;48.760;9.152;2022-11-15T15:55:24;5.75;;;3.17;;
1949;SDS011;975;48.760;9.152;2022-11-15T15:58:14;7.47;;;3.25;;
1949;SDS011;975;48.760;9.152;2022-11-15T16:01:02;8.25;;;3.63;;
1949;SDS011;975;48.760;9.152;2022-11-15T16:03:50;8.52;;;4.15;;
1949;SDS011;975;48.760;9.152;2022-11-15T16:06:39;9.45;;;3.65;;
1949;SDS011;975;48.760;9.152;2022-11-15T16:09:29;10.57;;;3.60;;
1949;SDS011;975;48.760;9.152;2022-11-15T16:12:35;9.80;;;4.38;;
1949;SDS011;975;48.760;9.152;2022-11-15T16:15:25;8.38;;;3.92;;
1949;SDS011;975;48.760;9.152;2022-11-15T16:18:14;11.25;;;4.53;;
1949;SDS011;975;48.760;9.152;2022-11-15T16:21:02;11.88;;;3.90;;
1949;SDS011;975;48.760;9.152;2022-11-15T16:23:50;10.65;;;4.13;;
1949;SDS011;975;48.760;9.152;2022-11-15T16:26:38;12.23;;;3.95;;
1949;SDS011;975;48.760;9.152;2022-11-15T16:29:26;11.05;;;4.85;;
1949;SDS011;975;48.760;9.152;2022-11-15T16:32:15;15.75;;;6.15;;
1949;SDS011;975;48.760;9.152;2022-11-15T16:35:04;18.65;;;7.05;;
1949;SDS011;975;48.760;9.152;2022-11-15T16:37:52;26.13;;;7.60;;
1949;SDS011;975;48.760;9.152;2022-11-15T16:40:43;13.55;;;6.03;;
1949;SDS011;975;48.760;9.152;2022-11-15T16:43:31;10.32;;;4.55;;
1949;SDS011;975;48.760;9.152;2022-11-15T16:46:19;9.25;;;4.72;;
1949;SDS011;975;48.760;9.152;2022-11-15T16:49:09;9.82;;;4.43;;
1949;SDS011;975;48.760;9.152;2022-11-15T16:51:59;12.07;;;4.30;;
1949;SDS011;975;48.760;9.152;2022-11-15T16:54:48;12.60;;;5.00;;
1949;SDS011;975;48.760;9.152;2022-11-15T16:57:36;10.55;;;4.80;;
1949;SDS011;975;48.760;9.152;2022-11-15T17:00:19;12.35;;;4.90;;
1949;SDS011;975;48.760;9.152;2022-11-15T17:03:07;12.15;;;4.78;;
1949;SDS011;975;48.760;9.152;2022-11-15T17:05:58;10.75;;;4.63;;
1949;SDS011;975;48.760;9.152;2022-11-15T17:08:46;9.95;;;4.63;;
1949;SDS011;975;48.760;9.152;2022-11-15T17:11:34;11.40;;;4.68;;
1949;SDS011;975;48.760;9.152;2022-11-15T17:14:22;10.50;;;4.97;;
1949;SDS011;975;48.760;9.152;2022-11-15T17:17:10;10.20;;;5.47;;
1949;SDS011;975;48.760;9.152;2022-11-15T17:19:58;17.48;;;7.35;;
1949;SDS011;975;48.760;9.152;2022-11-15T17:22:50;10.45;;;5.13;;
1949;SDS011;975;48.760;9.152;2022-11-15T17:25:38;13.48;;;7.05;;
1949;SDS011;975;48.760;9.152;2022-11-15T17:28:26;15.23;;;6.07;;
1949;SDS011;975;48.760;9.152;2022-11-15T17:31:14;17.73;;;10.32;;
1949;SDS011;975;48.760;9.152;2022-11-15T17:34:04;11.40;;;5.15;;
1949;SDS011;975;48.760;9.152;2022-11-15T17:36:52;9.75;;;4.25;;
1949;SDS011;975;48.760;9.152;2022-11-15T17:39:41;17.33;;;6.70;;
1949;SDS011;975;48.760;9.152;2022-11-15T17:42:29;9.30;;;4.28;;
1949;SDS011;975;48.760;9.152;2022-11-15T17:45:17;11.50;;;5.55;;
1949;SDS011;975;48.760;9.152;2022-11-15T17:48:05;8.18;;;4.45;;
1949;SDS011;975;48.760;9.152;2022-11-15T17:50:56;9.77;;;4.38;;
1949;SDS011;975;48.760;9.152;2022-11-15T17:53:45;11.80;;;4.75;;
1949;SDS011;975;48.760;9.152;2022-11-15T17:56:36;10.27;;;5.15;;
1949;SDS011;975;48.760;9.152;2022-11-15T17:59:24;13.55;;;5.45;;
1949;SDS011;975;48.760;9.152;2022-11-15T18:02:12;10.45;;;4.97;;
1949;SDS011;975;48.760;9.152;2022-11-15T18:05:00;10.75;;;5.90;;
1949;SDS011;975;48.760;9.152;2022-11-15T18:07:49;10.80;;;5.72;;
1949;SDS011;975;48.760;9.152;2022-11-15T18:10:36;14.52;;;5.45;;
1949;SDS011;975;48.760;9.152;2022-11-15T18:13:25;9.25;;;4.90;;
1949;SDS011;975;48.760;9.152;2022-11-15T18:16:14;12.82;;;4.63;;
1949;SDS011;975;48.760;9.152;2022-11-15T18:19:02;12.32;;;4.93;;
1949;SDS011;975;48.760;9.152;2022-11-15T18:21:53;12.85;;;5.60;;
1949;SDS011;975;48.760;9.152;2022-11-15T18:24:46;13.27;;;4.93;;